Portada
METAR-TAF:

METAR-TAF

Aeroports :

Okeechobee, Florida, Estats Units d'Amèrica

latitud: 27-15-58N, longitud: 080-51-04W, altitud: 10 m

Observació

L'informe es va fer fa 14 minuts, a les 06:55 UTC
Vent 4 kt del Nord-Oest
Temperatura 24°C
Humitat 94%
Pressió 1013 hPa

METAR: KOBE 160655Z AUTO 32004KT 24/23 A2992 RMK AO2 PWINO

Hora: 03:09 (07:09 UTC)


TAF: manca

Observacions i pronòstics meteorològics de més de 4000 aeroports (METAR i TAF).

Les estacions disponibles són els punts grocs i vermells al mapa.

Posi el ratolí al punt desitjat per veure el nom de l'estació.

Feu clic per veure les observacions i els pronòstics meteorològics.

Per canviar el mapa: feu clic els botons verds amb una creu de color negre per apropar; al botó verd amb un guió per allunyar la imatge; o en les fletxes verdes per a mapes adjacents.


METAR-TAF: